createdAt,value
2022-09-03T00:00:39.200Z,15.86
2022-09-03T00:03:47.535Z,15.73
2022-09-03T00:06:25.035Z,15.87
2022-09-03T00:09:01.507Z,15.97
2022-09-03T00:11:52.870Z,16.25
2022-09-03T00:14:30.526Z,16.24
2022-09-03T00:17:11.516Z,16.44
2022-09-03T00:20:09.713Z,16.52
2022-09-03T00:22:47.553Z,16.60
2022-09-03T00:25:25.518Z,16.62
2022-09-03T00:28:00.455Z,16.62
2022-09-03T00:30:32.462Z,16.48
2022-09-03T00:33:34.440Z,16.64
2022-09-03T00:36:04.442Z,16.70
2022-09-03T00:38:35.049Z,16.67
2022-09-03T00:41:19.687Z,16.66
2022-09-03T00:44:10.818Z,16.40
2022-09-03T00:47:12.896Z,16.67
2022-09-03T00:50:08.546Z,16.52
2022-09-03T00:52:49.636Z,16.65
2022-09-03T00:55:33.668Z,16.66
2022-09-03T00:58:23.731Z,16.69
2022-09-03T01:00:54.269Z,16.71
2022-09-03T01:03:39.350Z,16.77
2022-09-03T01:06:39.432Z,16.79
2022-09-03T01:09:31.737Z,16.85
2022-09-03T01:12:14.733Z,16.81
2022-09-03T01:15:12.146Z,16.65
2022-09-03T01:18:16.106Z,16.92
2022-09-03T01:20:57.526Z,16.95
2022-09-03T01:23:42.877Z,16.89
2022-09-03T01:26:30.880Z,16.93
2022-09-03T01:29:18.957Z,16.89
2022-09-03T01:32:23.437Z,16.91
2022-09-03T01:35:02.978Z,16.96
2022-09-03T01:38:05.950Z,17.05
2022-09-03T01:41:22.534Z,17.38
2022-09-03T01:44:05.562Z,17.41
2022-09-03T01:46:41.978Z,17.28
2022-09-03T01:49:46.256Z,17.34
2022-09-03T01:52:27.587Z,17.53
2022-09-03T01:55:10.051Z,17.69
2022-09-03T01:57:42.981Z,17.87
2022-09-03T02:00:21.660Z,17.80
2022-09-03T02:02:53.983Z,18.33
2022-09-03T02:05:29.532Z,18.70
2022-09-03T02:08:02.962Z,18.28
2022-09-03T02:10:51.185Z,18.81
2022-09-03T02:13:46.055Z,19.24
2022-09-03T02:16:25.837Z,19.41
2022-09-03T02:19:03.460Z,19.85
2022-09-03T02:21:52.604Z,20.15
2022-09-03T02:24:22.799Z,20.13
2022-09-03T02:26:52.880Z,20.50
2022-09-03T02:29:23.516Z,20.57
2022-09-03T02:31:53.717Z,20.83
2022-09-03T02:34:23.324Z,21.00
2022-09-03T02:36:53.827Z,21.21
2022-09-03T02:39:23.860Z,21.63
2022-09-03T02:41:58.901Z,21.21
2022-09-03T02:44:36.851Z,20.79
2022-09-03T02:47:10.266Z,20.66
2022-09-03T02:49:40.224Z,21.91
2022-09-03T02:52:13.540Z,22.49
2022-09-03T02:54:43.643Z,22.49
2022-09-03T02:57:16.354Z,22.47
2022-09-03T02:59:57.402Z,22.52
2022-09-03T03:02:27.295Z,22.23
2022-09-03T03:04:58.226Z,22.44
2022-09-03T03:07:28.317Z,23.22
2022-09-03T03:09:58.156Z,22.93
2022-09-03T03:12:28.258Z,21.89
2022-09-03T03:14:58.006Z,22.13
2022-09-03T03:17:28.399Z,22.25
2022-09-03T03:19:58.810Z,22.72
2022-09-03T03:22:28.952Z,23.16
2022-09-03T03:24:59.399Z,22.40
2022-09-03T03:27:29.257Z,21.56
2022-09-03T03:29:59.494Z,21.19
2022-09-03T03:32:29.504Z,20.62
2022-09-03T03:34:59.308Z,20.13
2022-09-03T03:37:29.045Z,19.95
2022-09-03T03:39:58.886Z,19.99
2022-09-03T03:42:29.614Z,20.06
2022-09-03T03:44:59.844Z,20.00
2022-09-03T03:47:32.660Z,20.20
2022-09-03T03:50:03.496Z,20.80
2022-09-03T03:52:33.620Z,20.98
2022-09-03T03:55:03.585Z,21.44
2022-09-03T03:57:33.763Z,21.58
2022-09-03T04:00:04.020Z,21.31
2022-09-03T04:02:44.402Z,20.99
2022-09-03T04:05:14.966Z,20.74
2022-09-03T04:07:46.664Z,20.36
2022-09-03T04:10:16.923Z,20.16
2022-09-03T04:12:47.762Z,20.18
2022-09-03T04:15:17.789Z,20.32
2022-09-03T04:17:47.437Z,20.04
2022-09-03T04:20:17.735Z,20.04
2022-09-03T04:22:51.402Z,20.16
2022-09-03T04:25:21.884Z,20.69
2022-09-03T04:27:54.075Z,20.81
2022-09-03T04:30:24.400Z,21.40
2022-09-03T04:32:54.904Z,21.75
2022-09-03T04:35:35.941Z,21.56
2022-09-03T04:38:07.431Z,20.88
2022-09-03T04:40:37.165Z,21.15
2022-09-03T04:43:07.669Z,21.92
2022-09-03T04:45:37.970Z,22.39
2022-09-03T04:48:12.338Z,22.81
2022-09-03T04:50:43.352Z,22.72
2022-09-03T04:53:13.378Z,22.33
2022-09-03T04:55:43.427Z,22.29
2022-09-03T04:58:13.475Z,22.11
2022-09-03T05:00:43.492Z,22.13
2022-09-03T05:03:13.906Z,21.81
2022-09-03T05:05:43.769Z,21.44
2022-09-03T05:08:14.000Z,21.86
2022-09-03T05:10:43.983Z,22.22
2022-09-03T05:13:13.746Z,22.00
2022-09-03T05:15:45.618Z,21.88
2022-09-03T05:18:16.423Z,21.78
2022-09-03T05:20:46.726Z,21.74
2022-09-03T05:23:16.525Z,21.57
2022-09-03T05:25:57.990Z,21.56
2022-09-03T05:28:29.822Z,21.62
2022-09-03T05:31:17.952Z,22.31
2022-09-03T05:33:50.573Z,22.32
2022-09-03T05:36:24.452Z,22.69
2022-09-03T05:38:55.608Z,22.87
2022-09-03T05:41:26.514Z,23.14
2022-09-03T05:44:00.220Z,23.32
2022-09-03T05:46:35.632Z,23.58
2022-09-03T05:49:09.274Z,23.04
2022-09-03T05:51:44.501Z,22.47
2022-09-03T05:54:15.332Z,22.16
2022-09-03T05:56:45.571Z,22.21
2022-09-03T05:59:15.555Z,22.86
2022-09-03T06:01:51.564Z,24.72
2022-09-03T06:04:24.235Z,25.54
2022-09-03T06:06:55.600Z,25.34
2022-09-03T06:09:25.533Z,25.61
2022-09-03T06:11:57.331Z,26.54
2022-09-03T06:14:28.673Z,26.09
2022-09-03T06:16:58.353Z,25.46
2022-09-03T06:19:29.135Z,24.67
2022-09-03T06:21:59.289Z,24.02
2022-09-03T06:24:31.434Z,23.87
2022-09-03T06:27:03.262Z,23.71
2022-09-03T06:29:33.129Z,24.41
2022-09-03T06:32:05.938Z,26.17
2022-09-03T06:34:36.661Z,26.26
2022-09-03T06:37:06.489Z,24.91
2022-09-03T06:39:36.737Z,24.51
2022-09-03T06:42:06.939Z,24.01
2022-09-03T06:44:39.446Z,23.73
2022-09-03T06:47:09.519Z,23.49
2022-09-03T06:49:39.601Z,23.46
2022-09-03T06:52:11.055Z,23.42
2022-09-03T06:54:43.063Z,23.57
2022-09-03T06:57:13.633Z,23.60
2022-09-03T06:59:45.207Z,23.91
2022-09-03T07:02:15.719Z,23.92
2022-09-03T07:04:46.310Z,23.87
2022-09-03T07:07:18.091Z,23.57
2022-09-03T07:09:48.976Z,23.37
2022-09-03T07:12:20.584Z,24.28
2022-09-03T07:14:52.349Z,25.96
2022-09-03T07:17:23.867Z,27.54
2022-09-03T07:19:54.043Z,28.32
2022-09-03T07:22:23.897Z,28.51
2022-09-03T07:25:01.776Z,27.59
2022-09-03T07:27:31.942Z,28.89
2022-09-03T07:30:02.089Z,26.97
2022-09-03T07:32:31.781Z,26.86
2022-09-03T07:35:01.734Z,26.46
2022-09-03T07:37:31.787Z,26.55
2022-09-03T07:40:02.773Z,28.14
2022-09-03T07:42:34.513Z,28.65
2022-09-03T07:45:06.942Z,27.47
2022-09-03T07:47:37.256Z,25.87
2022-09-03T07:50:07.878Z,25.77
2022-09-03T07:52:37.739Z,25.62
2022-09-03T07:55:08.319Z,26.84
2022-09-03T07:57:39.784Z,27.31
2022-09-03T08:00:11.253Z,28.51
2022-09-03T08:02:46.323Z,27.29
2022-09-03T08:05:16.929Z,26.66
2022-09-03T08:07:46.513Z,26.12
2022-09-03T08:10:17.994Z,25.81
2022-09-03T08:12:47.791Z,26.03
2022-09-03T08:15:18.235Z,26.12
2022-09-03T08:17:48.102Z,25.90
2022-09-03T08:20:19.441Z,25.33
2022-09-03T08:22:50.703Z,25.99
2022-09-03T08:25:20.778Z,27.20
2022-09-03T08:27:50.943Z,27.67
2022-09-03T08:30:22.827Z,27.09
2022-09-03T08:32:53.489Z,28.44
2022-09-03T08:35:23.811Z,28.75
2022-09-03T08:37:56.992Z,28.38
2022-09-03T08:40:27.245Z,27.95
2022-09-03T08:43:07.515Z,27.87
2022-09-03T08:45:40.646Z,28.76
2022-09-03T08:48:23.774Z,28.25
2022-09-03T08:51:01.707Z,28.70
2022-09-03T08:53:46.910Z,27.99
2022-09-03T08:56:41.849Z,26.97
2022-09-03T08:59:12.458Z,26.16
2022-09-03T09:01:54.948Z,25.73
2022-09-03T09:04:53.678Z,25.88
2022-09-03T09:07:30.197Z,25.66
2022-09-03T09:10:14.179Z,27.11
2022-09-03T09:13:18.620Z,26.36
2022-09-03T09:16:07.309Z,26.76
2022-09-03T09:19:11.174Z,27.05
2022-09-03T09:21:52.632Z,25.89
2022-09-03T09:24:28.777Z,24.93
2022-09-03T09:27:02.926Z,24.31
2022-09-03T09:29:38.956Z,23.92
2022-09-03T09:32:13.439Z,24.33
2022-09-03T09:34:44.393Z,26.22
2022-09-03T09:37:18.763Z,26.32
2022-09-03T09:40:02.234Z,24.84
2022-09-03T09:42:33.467Z,24.27
2022-09-03T09:45:12.699Z,23.67
2022-09-03T09:47:43.913Z,23.41
2022-09-03T09:50:25.988Z,23.38
2022-09-03T09:53:16.401Z,23.13
2022-09-03T09:55:56.727Z,24.39
2022-09-03T09:58:32.265Z,23.67
2022-09-03T10:01:15.417Z,23.20
2022-09-03T10:04:09.985Z,22.88
2022-09-03T10:06:58.240Z,23.34
2022-09-03T10:09:31.851Z,24.77
2022-09-03T10:12:26.355Z,24.13
2022-09-03T10:15:16.844Z,23.27
2022-09-03T10:18:02.189Z,23.54
2022-09-03T10:20:54.309Z,24.41
2022-09-03T10:23:32.530Z,24.71
2022-09-03T10:26:13.818Z,24.19
2022-09-03T10:28:50.551Z,23.67
2022-09-03T10:31:39.755Z,23.51
2022-09-03T10:34:38.472Z,24.55
2022-09-03T10:37:12.244Z,23.72
2022-09-03T10:39:57.282Z,23.07
2022-09-03T10:42:57.880Z,22.73
2022-09-03T10:46:00.855Z,22.36
2022-09-03T10:48:51.987Z,23.08
2022-09-03T10:51:29.321Z,24.63
2022-09-03T10:54:11.927Z,24.65
2022-09-03T10:56:48.883Z,23.65
2022-09-03T10:59:29.355Z,23.75
2022-09-03T11:02:23.099Z,22.95
2022-09-03T11:05:20.768Z,22.87
2022-09-03T11:07:59.907Z,22.64
2022-09-03T11:10:42.797Z,23.00
2022-09-03T11:13:37.735Z,23.10
2022-09-03T11:16:20.657Z,22.78
2022-09-03T11:18:57.423Z,22.47
2022-09-03T11:21:31.148Z,22.56
2022-09-03T11:24:16.562Z,23.11
2022-09-03T11:26:51.888Z,23.21
2022-09-03T11:29:54.198Z,22.85
2022-09-03T11:32:44.207Z,23.30
2022-09-03T11:35:40.424Z,24.04
2022-09-03T11:38:26.580Z,24.32
2022-09-03T11:41:17.697Z,23.55
2022-09-03T11:43:48.319Z,23.52
2022-09-03T11:46:25.572Z,23.16
2022-09-03T11:49:11.321Z,22.75
2022-09-03T11:51:48.347Z,22.47
2022-09-03T11:54:19.789Z,22.25
2022-09-03T11:56:51.801Z,21.85
2022-09-03T11:59:26.808Z,21.62
2022-09-03T12:02:22.363Z,21.44
2022-09-03T12:05:07.534Z,21.43
2022-09-03T12:08:08.977Z,21.44
2022-09-03T12:10:55.438Z,21.44
2022-09-03T12:13:34.927Z,21.19
2022-09-03T12:16:24.484Z,21.22
2022-09-03T12:19:02.140Z,21.14
2022-09-03T12:21:32.192Z,21.36
2022-09-03T12:24:04.960Z,21.23
2022-09-03T12:26:42.958Z,21.12
2022-09-03T12:29:27.959Z,20.91
2022-09-03T12:32:07.527Z,20.77
2022-09-03T12:34:37.418Z,20.53
2022-09-03T12:38:04.532Z,20.58
2022-09-03T12:40:34.134Z,20.53
2022-09-03T12:46:17.851Z,20.33
2022-09-03T12:49:32.149Z,20.37
2022-09-03T12:52:08.111Z,20.08
2022-09-03T12:54:45.450Z,19.99
2022-09-03T12:57:25.300Z,20.08
2022-09-03T13:00:02.213Z,20.07
2022-09-03T13:02:58.863Z,19.96
2022-09-03T13:05:48.449Z,20.02
2022-09-03T13:08:41.870Z,19.82
2022-09-03T13:11:12.421Z,19.74
2022-09-03T13:14:20.288Z,19.78
2022-09-03T13:17:05.047Z,19.70
2022-09-03T13:19:50.323Z,19.73
2022-09-03T13:22:36.712Z,19.68
2022-09-03T13:25:30.974Z,19.72
2022-09-03T13:28:33.841Z,19.73
2022-09-03T13:31:33.352Z,19.69
2022-09-03T13:34:27.140Z,19.59
2022-09-03T13:37:05.385Z,19.62
2022-09-03T13:40:05.546Z,19.50
2022-09-03T13:42:41.062Z,19.41
2022-09-03T13:45:28.602Z,19.54
2022-09-03T13:48:28.171Z,19.55
2022-09-03T13:51:09.728Z,19.48
2022-09-03T13:54:01.440Z,19.49
2022-09-03T13:56:32.705Z,19.46
2022-09-03T13:59:17.627Z,19.43
2022-09-03T14:02:20.927Z,19.36
2022-09-03T14:05:21.478Z,19.27
2022-09-03T14:08:03.590Z,19.25
2022-09-03T14:11:03.683Z,19.29
2022-09-03T14:13:59.433Z,19.25
2022-09-03T14:16:51.740Z,19.22
2022-09-03T14:19:50.948Z,19.19
2022-09-03T14:22:37.765Z,19.04
2022-09-03T14:25:23.117Z,18.95
2022-09-03T14:27:53.856Z,18.91
2022-09-03T14:30:43.973Z,18.85
2022-09-03T14:33:38.808Z,18.73
2022-09-03T14:36:09.476Z,18.68
2022-09-03T14:38:58.482Z,18.56
2022-09-03T14:41:35.679Z,18.36
2022-09-03T14:44:29.454Z,18.39
2022-09-03T14:49:51.318Z,18.13
2022-09-03T14:52:42.813Z,18.05
2022-09-03T14:55:40.882Z,17.92
2022-09-03T14:58:41.095Z,17.66
2022-09-03T15:01:21.000Z,17.75
2022-09-03T15:04:12.539Z,17.56
2022-09-03T15:07:20.115Z,17.55
2022-09-03T15:10:20.297Z,17.42
2022-09-03T15:13:26.092Z,17.44
2022-09-03T15:16:34.224Z,17.46
2022-09-03T15:19:09.961Z,17.42
2022-09-03T15:22:28.751Z,17.33
2022-09-03T15:25:11.604Z,17.34
2022-09-03T15:27:52.169Z,17.35
2022-09-03T15:30:22.802Z,17.32
2022-09-03T15:33:09.361Z,17.40
2022-09-03T15:36:02.203Z,17.32
2022-09-03T15:38:49.513Z,17.34
2022-09-03T15:41:46.648Z,17.41
2022-09-03T15:44:21.364Z,17.41
2022-09-03T15:46:55.070Z,17.41
2022-09-03T15:49:35.854Z,17.34
2022-09-03T15:52:26.428Z,17.46
2022-09-03T15:55:24.686Z,17.44
2022-09-03T15:58:15.830Z,17.53
2022-09-03T16:00:52.920Z,17.59
2022-09-03T16:03:42.650Z,17.65
2022-09-03T16:06:39.920Z,17.67
2022-09-03T16:09:26.860Z,17.69
2022-09-03T16:12:38.636Z,17.63
2022-09-03T16:15:14.425Z,17.71
2022-09-03T16:18:08.044Z,17.76
2022-09-03T16:20:48.449Z,17.77
2022-09-03T16:23:27.003Z,17.81
2022-09-03T16:26:07.314Z,17.84
2022-09-03T16:28:59.934Z,17.86
2022-09-03T16:32:08.178Z,17.88
2022-09-03T16:34:42.830Z,17.90
2022-09-03T16:37:28.193Z,17.92
2022-09-03T16:40:38.665Z,17.90
2022-09-03T16:43:39.773Z,17.83
2022-09-03T16:46:28.400Z,17.76
2022-09-03T16:49:13.673Z,17.70
2022-09-03T16:51:57.981Z,17.61
2022-09-03T16:54:39.716Z,17.58
2022-09-03T16:57:29.106Z,17.34
2022-09-03T17:00:05.280Z,17.48
2022-09-03T17:02:47.226Z,17.46
2022-09-03T17:05:26.632Z,17.42
2022-09-03T17:08:23.920Z,17.40
2022-09-03T17:11:12.384Z,17.36
2022-09-03T17:14:26.338Z,17.35
2022-09-03T17:17:04.431Z,17.25
2022-09-03T17:19:47.242Z,17.17
2022-09-03T17:22:34.169Z,17.26
2022-09-03T17:25:07.476Z,17.15
2022-09-03T17:27:59.692Z,17.29
2022-09-03T17:30:51.878Z,17.23
2022-09-03T17:33:35.881Z,17.21
2022-09-03T17:36:05.839Z,17.33
2022-09-03T17:39:06.156Z,17.38
2022-09-03T17:41:54.588Z,17.28
2022-09-03T17:44:48.433Z,17.35
2022-09-03T17:47:59.560Z,17.47
2022-09-03T17:50:36.799Z,17.41
2022-09-03T17:53:27.301Z,17.51
2022-09-03T17:56:06.114Z,17.46
2022-09-03T17:58:40.405Z,17.51
2022-09-03T18:01:15.107Z,17.52
2022-09-03T18:03:56.283Z,17.55
2022-09-03T18:06:36.485Z,17.49
2022-09-03T18:09:18.784Z,17.50
2022-09-03T18:12:02.159Z,17.35
2022-09-03T18:14:57.855Z,17.40
2022-09-03T18:17:33.295Z,17.36
2022-09-03T18:20:26.503Z,17.29
2022-09-03T18:23:22.201Z,17.25
2022-09-03T18:26:16.481Z,17.34
2022-09-03T18:29:16.161Z,17.37
2022-09-03T18:32:04.684Z,17.33
2022-09-03T18:34:56.484Z,17.34
2022-09-03T18:37:47.852Z,17.39
2022-09-03T18:40:51.547Z,17.29
2022-09-03T18:44:01.288Z,17.29
2022-09-03T18:50:24.180Z,17.13
2022-09-03T18:53:24.551Z,16.95
2022-09-03T18:56:28.325Z,17.02
2022-09-03T18:59:53.682Z,17.08
2022-09-03T19:03:02.236Z,17.13
2022-09-03T19:06:34.743Z,17.25
2022-09-03T19:09:29.584Z,17.28
2022-09-03T19:12:41.199Z,17.15
2022-09-03T19:15:35.950Z,17.29
2022-09-03T19:18:50.408Z,17.27
2022-09-03T19:21:57.717Z,17.16
2022-09-03T19:24:50.828Z,17.23
2022-09-03T19:28:09.316Z,17.16
2022-09-03T19:31:30.831Z,17.05
2022-09-03T19:34:43.414Z,17.02
2022-09-03T19:38:11.782Z,16.97
2022-09-03T19:41:02.741Z,16.95
2022-09-03T19:44:25.039Z,17.02
2022-09-03T19:47:20.590Z,17.05
2022-09-03T19:50:19.450Z,17.05
2022-09-03T19:53:33.613Z,17.01
2022-09-03T19:56:34.790Z,17.05
2022-09-03T19:59:31.556Z,17.07
2022-09-03T20:02:21.376Z,16.84
2022-09-03T20:05:17.918Z,17.03
2022-09-03T20:08:10.272Z,16.95
2022-09-03T20:10:41.394Z,16.92
2022-09-03T20:13:18.228Z,16.91
2022-09-03T20:16:08.599Z,16.75
2022-09-03T20:18:49.489Z,16.82
2022-09-03T20:21:49.938Z,16.66
2022-09-03T20:24:29.727Z,16.63
2022-09-03T20:27:36.569Z,16.61
2022-09-03T20:30:35.318Z,16.56
2022-09-03T20:33:11.191Z,16.56
2022-09-03T20:36:08.559Z,16.53
2022-09-03T20:39:02.960Z,16.55
2022-09-03T20:41:56.273Z,16.55
2022-09-03T20:44:50.230Z,16.54
2022-09-03T20:47:50.067Z,16.51
2022-09-03T20:50:44.464Z,16.47
2022-09-03T20:53:24.654Z,16.39
2022-09-03T20:55:59.165Z,16.29
2022-09-03T20:59:03.625Z,16.42
2022-09-03T21:01:59.215Z,16.45
2022-09-03T21:04:35.187Z,16.42
2022-09-03T21:07:22.234Z,16.31
2022-09-03T21:09:53.204Z,16.47
2022-09-03T21:12:41.174Z,16.49
2022-09-03T21:15:56.630Z,16.40
2022-09-03T21:18:42.905Z,16.33
2022-09-03T21:21:24.301Z,16.29
2022-09-03T21:24:31.430Z,16.35
2022-09-03T21:27:14.639Z,16.40
2022-09-03T21:30:09.289Z,16.52
2022-09-03T21:32:49.062Z,16.58
2022-09-03T21:35:27.894Z,16.66
2022-09-03T21:38:01.604Z,16.72
2022-09-03T21:40:34.709Z,16.70
2022-09-03T21:43:18.102Z,16.79
2022-09-03T21:46:23.654Z,16.83
2022-09-03T21:48:57.420Z,16.82
2022-09-03T21:52:03.673Z,16.81
2022-09-03T21:54:35.785Z,16.73
2022-09-03T21:57:22.195Z,16.83
2022-09-03T22:00:13.572Z,16.83
2022-09-03T22:02:43.735Z,16.82
2022-09-03T22:05:13.955Z,16.79
2022-09-03T22:08:05.177Z,16.84
2022-09-03T22:10:49.450Z,16.91
2022-09-03T22:13:37.869Z,16.90
2022-09-03T22:16:40.914Z,16.82
2022-09-03T22:19:10.803Z,16.96
2022-09-03T22:22:02.254Z,17.05
2022-09-03T22:24:47.201Z,17.09
2022-09-03T22:27:37.070Z,16.97
2022-09-03T22:30:15.279Z,17.00
2022-09-03T22:33:26.546Z,17.12
2022-09-03T22:36:15.143Z,17.13
2022-09-03T22:39:05.196Z,17.12
2022-09-03T22:41:41.318Z,17.14
2022-09-03T22:44:46.520Z,16.96
2022-09-03T22:48:07.716Z,17.14
2022-09-03T22:51:04.980Z,17.13
2022-09-03T22:54:07.207Z,17.18
2022-09-03T22:56:42.261Z,16.98
2022-09-03T22:59:25.568Z,17.25
2022-09-03T23:02:15.128Z,17.23
2022-09-03T23:04:56.671Z,17.16
2022-09-03T23:07:47.830Z,17.13
2022-09-03T23:10:27.924Z,17.12
2022-09-03T23:13:07.234Z,17.06
2022-09-03T23:15:41.330Z,17.01
2022-09-03T23:18:28.340Z,17.06
2022-09-03T23:21:07.255Z,17.05
2022-09-03T23:23:42.705Z,17.06
2022-09-03T23:26:24.648Z,17.00
2022-09-03T23:29:04.178Z,16.86
2022-09-03T23:31:34.085Z,16.64
2022-09-03T23:34:04.946Z,17.10
2022-09-03T23:37:01.352Z,17.15
2022-09-03T23:40:02.524Z,17.13
2022-09-03T23:42:35.618Z,17.08
2022-09-03T23:45:08.563Z,17.08
2022-09-03T23:48:09.442Z,17.02
2022-09-03T23:50:51.538Z,17.04
2022-09-03T23:53:51.278Z,17.02
2022-09-03T23:56:33.983Z,17.00
2022-09-03T23:59:44.606Z,17.00
